createdAt,value
2023-01-12T00:00:06.064Z,1.65
2023-01-12T00:03:48.535Z,1.35
2023-01-12T00:07:30.296Z,1.00
2023-01-12T00:11:12.102Z,1.45
2023-01-12T00:14:53.878Z,0.60
2023-01-12T00:18:35.666Z,1.17
2023-01-12T00:22:17.636Z,1.10
2023-01-12T00:25:59.389Z,0.60
2023-01-12T00:29:41.393Z,0.93
2023-01-12T00:33:23.321Z,0.93
2023-01-12T00:37:05.398Z,0.68
2023-01-12T00:40:47.114Z,0.85
2023-01-12T00:44:47.423Z,0.82
2023-01-12T00:48:30.962Z,0.45
2023-01-12T00:52:29.340Z,0.70
2023-01-12T00:56:12.365Z,0.57
2023-01-12T00:59:55.220Z,0.55
2023-01-12T01:03:37.343Z,0.40
2023-01-12T01:07:21.616Z,0.63
2023-01-12T01:11:11.670Z,0.47
2023-01-12T01:14:53.554Z,0.52
2023-01-12T01:18:35.897Z,0.90
2023-01-12T01:22:17.643Z,0.73
2023-01-12T01:26:03.880Z,0.82
2023-01-12T01:29:45.603Z,0.57
2023-01-12T01:33:27.360Z,0.60
2023-01-12T01:37:09.130Z,0.40
2023-01-12T01:40:51.292Z,0.60
2023-01-12T01:44:33.072Z,0.88
2023-01-12T01:48:17.894Z,0.80
2023-01-12T01:52:08.078Z,0.85
2023-01-12T01:55:54.374Z,0.52
2023-01-12T01:59:39.161Z,1.03
2023-01-12T02:03:21.421Z,0.77
2023-01-12T02:07:06.839Z,0.50
2023-01-12T02:10:50.356Z,0.70
2023-01-12T02:14:52.219Z,1.15
2023-01-12T02:18:49.359Z,0.73
2023-01-12T02:22:58.366Z,1.10
2023-01-12T02:27:00.242Z,0.50
2023-01-12T02:31:13.067Z,0.40
2023-01-12T02:35:15.061Z,0.32
2023-01-12T02:39:19.130Z,0.68
2023-01-12T02:43:28.913Z,0.63
2023-01-12T02:47:18.736Z,0.40
2023-01-12T02:51:12.153Z,0.70
2023-01-12T02:54:55.212Z,0.32
2023-01-12T02:58:50.675Z,0.50
2023-01-12T03:02:33.252Z,0.43
2023-01-12T03:06:18.661Z,0.80
2023-01-12T03:10:17.908Z,0.45
2023-01-12T03:14:02.829Z,0.38
2023-01-12T03:18:03.763Z,0.40
2023-01-12T03:21:48.290Z,0.80
2023-01-12T03:25:33.989Z,1.42
2023-01-12T03:29:25.394Z,1.08
2023-01-12T03:33:08.687Z,1.00
2023-01-12T03:37:03.445Z,1.35
2023-01-12T03:40:56.920Z,1.20
2023-01-12T03:44:46.412Z,1.48
2023-01-12T03:48:31.205Z,1.15
2023-01-12T03:52:13.717Z,1.00
2023-01-12T03:55:59.757Z,1.55
2023-01-12T03:59:42.000Z,0.82
2023-01-12T04:03:24.652Z,1.08
2023-01-12T04:07:06.645Z,1.75
2023-01-12T04:10:48.412Z,0.77
2023-01-12T04:14:30.172Z,1.10
2023-01-12T04:18:12.885Z,1.45
2023-01-12T04:22:13.125Z,0.90
2023-01-12T04:25:54.876Z,1.30
2023-01-12T04:29:36.657Z,1.25
2023-01-12T04:33:18.435Z,1.60
2023-01-12T04:37:03.726Z,1.30
2023-01-12T04:40:45.442Z,1.20
2023-01-12T04:44:27.440Z,1.00
2023-01-12T04:48:14.215Z,1.65
2023-01-12T04:51:55.956Z,0.68
2023-01-12T04:55:40.211Z,1.02
2023-01-12T04:59:21.980Z,0.80
2023-01-12T05:03:03.848Z,0.80
2023-01-12T05:06:45.617Z,0.90
2023-01-12T05:10:27.551Z,0.77
2023-01-12T05:14:09.326Z,1.10
2023-01-12T05:17:51.192Z,0.65
2023-01-12T05:21:32.944Z,0.40
2023-01-12T05:25:15.237Z,1.02
2023-01-12T05:28:57.042Z,0.63
2023-01-12T05:32:41.362Z,0.47
2023-01-12T05:36:25.630Z,0.45
2023-01-12T05:40:08.914Z,0.50
2023-01-12T05:43:50.970Z,0.40
2023-01-12T05:47:32.728Z,0.68
2023-01-12T05:51:14.817Z,0.30
2023-01-12T05:54:56.583Z,0.28
2023-01-12T05:58:38.371Z,0.52
2023-01-12T06:02:21.615Z,0.47
2023-01-12T06:06:04.528Z,0.30
2023-01-12T06:09:46.445Z,0.57
2023-01-12T06:13:46.731Z,0.38
2023-01-12T06:17:28.532Z,0.40
2023-01-12T06:21:10.933Z,0.55
2023-01-12T06:24:53.850Z,0.60
2023-01-12T06:28:39.819Z,0.60
2023-01-12T06:32:21.529Z,0.30
2023-01-12T06:36:04.499Z,0.45
2023-01-12T06:39:46.218Z,0.63
2023-01-12T06:43:27.980Z,0.73
2023-01-12T06:47:09.759Z,0.55
2023-01-12T06:51:00.164Z,0.57
2023-01-12T06:54:41.911Z,0.40
2023-01-12T06:58:23.790Z,0.50
2023-01-12T07:02:05.911Z,0.52
2023-01-12T07:05:47.741Z,0.50
2023-01-12T07:09:29.546Z,0.43
2023-01-12T07:13:11.396Z,0.40
2023-01-12T07:16:53.102Z,0.40
2023-01-12T07:20:35.052Z,0.50
2023-01-12T07:24:17.435Z,0.40
2023-01-12T07:27:59.273Z,0.43
2023-01-12T07:31:41.054Z,1.23
2023-01-12T07:35:25.029Z,0.32
2023-01-12T07:39:08.539Z,0.38
2023-01-12T07:43:01.993Z,0.50
2023-01-12T07:46:43.720Z,0.50
2023-01-12T07:50:28.291Z,0.70
2023-01-12T07:54:10.137Z,0.60
2023-01-12T07:57:59.426Z,0.30
2023-01-12T08:01:41.369Z,0.50
2023-01-12T08:05:23.332Z,0.30
2023-01-12T08:09:05.438Z,0.40
2023-01-12T08:12:50.911Z,0.30
2023-01-12T08:16:37.672Z,0.40
2023-01-12T08:20:24.095Z,0.50
2023-01-12T08:24:06.620Z,0.60
2023-01-12T08:27:51.785Z,0.43
2023-01-12T08:31:33.650Z,0.55
2023-01-12T08:35:20.467Z,0.30
2023-01-12T08:39:04.256Z,0.50
2023-01-12T08:42:46.037Z,0.40
2023-01-12T08:46:29.268Z,0.30
2023-01-12T08:50:11.675Z,0.20
2023-01-12T08:53:53.513Z,0.22
2023-01-12T08:57:35.336Z,0.20
2023-01-12T09:01:17.492Z,0.20
2023-01-12T09:04:59.499Z,0.40
2023-01-12T09:08:41.545Z,0.30
2023-01-12T09:12:24.549Z,0.63
2023-01-12T09:16:13.400Z,0.30
2023-01-12T09:19:55.512Z,0.30
2023-01-12T09:23:38.076Z,0.30
2023-01-12T09:27:19.895Z,0.30
2023-01-12T09:31:08.062Z,0.22
2023-01-12T09:34:49.985Z,0.32
2023-01-12T09:38:32.003Z,0.20
2023-01-12T09:42:37.865Z,0.52
2023-01-12T09:46:45.937Z,0.30
2023-01-12T09:50:33.602Z,0.30
2023-01-12T09:54:15.430Z,1.02
2023-01-12T09:58:18.103Z,0.30
2023-01-12T10:02:00.299Z,0.38
2023-01-12T10:05:52.278Z,0.43
2023-01-12T10:09:34.725Z,0.40
2023-01-12T10:13:17.204Z,0.45
2023-01-12T10:17:16.850Z,0.32
2023-01-12T10:20:59.292Z,0.75
2023-01-12T10:24:42.223Z,0.52
2023-01-12T10:28:36.946Z,0.50
2023-01-12T10:32:22.138Z,1.30
2023-01-12T10:36:17.317Z,0.60
2023-01-12T10:39:59.068Z,0.45
2023-01-12T10:43:42.679Z,0.60
2023-01-12T10:47:24.440Z,0.68
2023-01-12T10:51:18.087Z,0.35
2023-01-12T10:54:59.865Z,0.60
2023-01-12T10:58:45.882Z,0.60
2023-01-12T11:02:40.710Z,0.60
2023-01-12T11:06:31.003Z,0.50
2023-01-12T11:10:31.820Z,0.50
2023-01-12T11:14:25.352Z,0.50
2023-01-12T11:18:11.377Z,0.30
2023-01-12T11:22:04.307Z,0.40
2023-01-12T11:25:49.572Z,0.30
2023-01-12T11:29:55.567Z,0.55
2023-01-12T11:33:42.561Z,0.50
2023-01-12T11:37:24.375Z,0.77
2023-01-12T11:41:19.102Z,0.40
2023-01-12T11:45:13.014Z,0.70
2023-01-12T11:49:16.740Z,0.40
2023-01-12T11:52:59.018Z,0.30
2023-01-12T11:56:51.272Z,0.40
2023-01-12T12:00:52.396Z,0.50
2023-01-12T12:04:43.327Z,0.50
2023-01-12T12:08:30.365Z,0.50
2023-01-12T12:12:15.063Z,0.38
2023-01-12T12:16:19.768Z,0.30
2023-01-12T12:20:22.844Z,0.77
2023-01-12T12:24:22.746Z,0.73
2023-01-12T12:28:19.567Z,0.30
2023-01-12T12:32:12.425Z,0.40
2023-01-12T12:36:00.129Z,0.70
2023-01-12T12:40:05.184Z,0.32
2023-01-12T12:44:12.671Z,0.50
2023-01-12T12:48:15.808Z,0.60
2023-01-12T12:51:59.807Z,0.93
2023-01-12T12:55:42.570Z,0.50
2023-01-12T12:59:52.170Z,0.68
2023-01-12T13:03:40.113Z,1.10
2023-01-12T13:07:22.649Z,0.98
2023-01-12T13:11:05.583Z,0.73
2023-01-12T13:15:21.960Z,1.13
2023-01-12T13:22:49.368Z,1.52
2023-01-12T13:26:34.775Z,1.20
2023-01-12T13:30:28.631Z,2.63
2023-01-12T13:34:39.091Z,2.58
2023-01-12T13:38:44.723Z,1.90
2023-01-12T13:42:46.187Z,2.35
2023-01-12T13:46:34.588Z,1.80
2023-01-12T13:50:22.263Z,1.90
2023-01-12T13:54:13.563Z,2.75
2023-01-12T13:58:00.869Z,1.80
2023-01-12T14:05:36.711Z,2.85
2023-01-12T14:09:21.157Z,1.63
2023-01-12T14:13:02.925Z,2.25
2023-01-12T14:17:05.013Z,2.60
2023-01-12T14:20:52.423Z,2.03
2023-01-12T14:24:34.197Z,3.05
2023-01-12T14:28:18.575Z,2.45
2023-01-12T14:32:00.401Z,2.67
2023-01-12T14:35:46.969Z,2.80
2023-01-12T14:39:33.802Z,3.13
2023-01-12T14:43:35.310Z,3.03
2023-01-12T14:47:28.303Z,4.32
2023-01-12T14:51:20.984Z,2.45
2023-01-12T14:55:24.470Z,3.25
2023-01-12T14:59:13.741Z,3.50
2023-01-12T15:02:59.088Z,2.85
2023-01-12T15:06:42.797Z,2.38
2023-01-12T15:10:36.630Z,3.35
2023-01-12T15:14:25.217Z,2.67
2023-01-12T15:18:27.012Z,2.40
2023-01-12T15:22:28.770Z,4.53
2023-01-12T15:26:10.540Z,4.40
2023-01-12T15:29:52.824Z,3.78
2023-01-12T15:33:34.564Z,4.03
2023-01-12T15:37:19.067Z,4.97
2023-01-12T15:41:00.858Z,4.57
2023-01-12T15:44:46.899Z,3.95
2023-01-12T15:48:28.695Z,4.88
2023-01-12T15:52:21.184Z,6.35
2023-01-12T15:56:03.017Z,6.70
2023-01-12T15:59:45.046Z,7.25
2023-01-12T16:03:54.937Z,7.97
2023-01-12T16:07:28.706Z,8.55
2023-01-12T16:11:19.555Z,8.25
2023-01-12T16:15:01.353Z,8.73
2023-01-12T16:18:43.873Z,9.23
2023-01-12T16:22:28.081Z,7.30
2023-01-12T16:26:10.793Z,7.63
2023-01-12T16:29:53.022Z,8.43
2023-01-12T16:33:34.789Z,8.27
2023-01-12T16:37:17.400Z,7.75
2023-01-12T16:40:59.521Z,8.80
2023-01-12T16:44:41.791Z,8.68
2023-01-12T16:48:23.563Z,7.78
2023-01-12T16:52:07.499Z,7.65
2023-01-12T16:55:49.241Z,9.25
2023-01-12T16:59:30.999Z,6.80
2023-01-12T17:03:14.132Z,7.78
2023-01-12T17:06:56.056Z,6.75
2023-01-12T17:10:37.957Z,6.55
2023-01-12T17:14:26.935Z,6.72
2023-01-12T17:18:08.940Z,7.93
2023-01-12T17:21:51.781Z,8.50
2023-01-12T17:25:33.786Z,7.28
2023-01-12T17:29:15.845Z,8.13
2023-01-12T17:32:57.693Z,6.78
2023-01-12T17:36:40.117Z,8.52
2023-01-12T17:40:21.897Z,9.80
2023-01-12T17:44:05.302Z,8.07
2023-01-12T17:47:47.068Z,7.43
2023-01-12T17:51:28.922Z,8.13
2023-01-12T17:55:10.887Z,6.95
2023-01-12T17:58:54.013Z,7.32
2023-01-12T18:02:36.449Z,7.65
2023-01-12T18:06:26.570Z,8.00
2023-01-12T18:10:10.404Z,7.75
2023-01-12T18:13:52.594Z,7.35
2023-01-12T18:17:34.501Z,8.50
2023-01-12T18:21:20.609Z,7.32
2023-01-12T18:25:02.471Z,7.80
2023-01-12T18:28:45.266Z,8.77
2023-01-12T18:32:27.015Z,8.68
2023-01-12T18:36:10.997Z,5.72
2023-01-12T18:39:52.728Z,6.82
2023-01-12T18:43:34.518Z,6.95
2023-01-12T18:47:34.917Z,5.05
2023-01-12T18:51:35.455Z,5.00
2023-01-12T18:55:17.259Z,5.60
2023-01-12T18:58:59.029Z,5.38
2023-01-12T19:02:41.906Z,6.18
2023-01-12T19:06:28.501Z,3.90
2023-01-12T19:10:10.531Z,5.70
2023-01-12T19:14:11.204Z,6.20
2023-01-12T19:17:52.934Z,6.57
2023-01-12T19:21:53.877Z,6.22
2023-01-12T19:26:13.900Z,5.15
2023-01-12T19:29:55.822Z,5.72
2023-01-12T19:33:38.887Z,5.78
2023-01-12T19:37:20.675Z,4.35
2023-01-12T19:41:12.675Z,5.50
2023-01-12T19:44:54.662Z,6.43
2023-01-12T19:48:37.566Z,5.95
2023-01-12T19:52:19.911Z,8.38
2023-01-12T19:56:01.787Z,5.93
2023-01-12T19:59:45.183Z,6.18
2023-01-12T20:03:26.974Z,5.10
2023-01-12T20:07:08.822Z,6.53
2023-01-12T20:10:58.993Z,5.82
2023-01-12T20:14:40.955Z,6.43
2023-01-12T20:18:22.980Z,7.07
2023-01-12T20:22:04.792Z,5.55
2023-01-12T20:25:46.550Z,4.93
2023-01-12T20:29:28.378Z,4.80
2023-01-12T20:33:11.229Z,4.45
2023-01-12T20:36:53.082Z,3.20
2023-01-12T20:40:34.873Z,5.38
2023-01-12T20:44:17.197Z,4.30
2023-01-12T20:47:59.024Z,2.65
2023-01-12T20:51:40.876Z,3.70
2023-01-12T20:55:22.633Z,3.13
2023-01-12T20:59:04.514Z,2.63
2023-01-12T21:02:46.391Z,3.85
2023-01-12T21:06:28.247Z,3.38
2023-01-12T21:10:12.020Z,3.60
2023-01-12T21:13:53.900Z,3.70
2023-01-12T21:17:39.017Z,3.25
2023-01-12T21:21:20.789Z,2.88
2023-01-12T21:25:02.757Z,3.75
2023-01-12T21:28:44.585Z,2.25
2023-01-12T21:32:28.125Z,2.70
2023-01-12T21:36:13.087Z,2.70
2023-01-12T21:39:54.917Z,2.42
2023-01-12T21:43:36.743Z,3.17
2023-01-12T21:47:18.484Z,3.00
2023-01-12T21:51:08.484Z,2.40
2023-01-12T21:54:53.841Z,3.45
2023-01-12T21:58:36.686Z,2.47
2023-01-12T22:02:18.549Z,2.88
2023-01-12T22:06:08.667Z,2.97
2023-01-12T22:09:50.452Z,2.63
2023-01-12T22:13:32.387Z,2.42
2023-01-12T22:17:14.109Z,3.10
2023-01-12T22:21:02.166Z,2.17
2023-01-12T22:24:43.913Z,2.85
2023-01-12T22:28:25.681Z,3.40
2023-01-12T22:32:09.550Z,3.55
2023-01-12T22:35:51.325Z,2.53
2023-01-12T22:39:33.154Z,2.42
2023-01-12T22:43:27.004Z,3.05
2023-01-12T22:47:08.899Z,2.55
2023-01-12T22:50:53.357Z,3.08
2023-01-12T22:54:35.094Z,3.60
2023-01-12T22:58:17.155Z,2.20
2023-01-12T23:02:18.986Z,2.80
2023-01-12T23:06:00.832Z,3.67
2023-01-12T23:09:42.822Z,2.60
2023-01-12T23:13:24.600Z,2.47
2023-01-12T23:17:06.308Z,1.83
2023-01-12T23:20:49.373Z,2.13
2023-01-12T23:24:31.130Z,2.15
2023-01-12T23:28:14.409Z,2.85
2023-01-12T23:31:56.196Z,2.03
2023-01-12T23:35:40.384Z,1.80
2023-01-12T23:39:22.446Z,2.08
2023-01-12T23:43:04.195Z,1.98
2023-01-12T23:46:46.055Z,2.20
2023-01-12T23:50:27.857Z,2.10
2023-01-12T23:54:13.085Z,2.70
2023-01-12T23:57:54.842Z,2.40
